sensor_id;sensor_type;location;lat;lon;timestamp;temperature;humidity
40085;DHT22;25786;51.504;7.344;2022-09-09T00:00:32;16.90;87.80
40085;DHT22;25786;51.504;7.344;2022-09-09T00:03:18;16.80;86.80
40085;DHT22;25786;51.504;7.344;2022-09-09T00:08:19;16.80;87.00
40085;DHT22;25786;51.504;7.344;2022-09-09T00:10:45;16.80;87.30
40085;DHT22;25786;51.504;7.344;2022-09-09T00:15:57;16.80;86.90
40085;DHT22;25786;51.504;7.344;2022-09-09T00:18:27;16.90;86.80
40085;DHT22;25786;51.504;7.344;2022-09-09T00:28:33;16.90;86.20
40085;DHT22;25786;51.504;7.344;2022-09-09T00:31:14;16.90;86.10
40085;DHT22;25786;51.504;7.344;2022-09-09T00:33:40;16.80;86.00
40085;DHT22;25786;51.504;7.344;2022-09-09T00:36:12;16.90;86.20
40085;DHT22;25786;51.504;7.344;2022-09-09T00:38:43;16.90;86.40
40085;DHT22;25786;51.504;7.344;2022-09-09T00:41:11;16.90;86.60
40085;DHT22;25786;51.504;7.344;2022-09-09T00:43:40;16.80;86.30
40085;DHT22;25786;51.504;7.344;2022-09-09T00:46:10;16.80;86.70
40085;DHT22;25786;51.504;7.344;2022-09-09T00:48:46;16.90;86.50
40085;DHT22;25786;51.504;7.344;2022-09-09T00:51:17;16.90;86.80
40085;DHT22;25786;51.504;7.344;2022-09-09T00:56:35;16.80;85.60
40085;DHT22;25786;51.504;7.344;2022-09-09T01:01:46;16.90;86.00
40085;DHT22;25786;51.504;7.344;2022-09-09T01:04:13;16.80;85.50
40085;DHT22;25786;51.504;7.344;2022-09-09T01:06:41;16.70;85.60
40085;DHT22;25786;51.504;7.344;2022-09-09T01:17:24;16.60;86.00
40085;DHT22;25786;51.504;7.344;2022-09-09T01:22:21;16.50;85.90
40085;DHT22;25786;51.504;7.344;2022-09-09T01:27:35;16.50;86.20
40085;DHT22;25786;51.504;7.344;2022-09-09T01:30:04;16.60;86.30
40085;DHT22;25786;51.504;7.344;2022-09-09T01:32:40;16.50;86.20
40085;DHT22;25786;51.504;7.344;2022-09-09T01:37:55;16.50;86.70
40085;DHT22;25786;51.504;7.344;2022-09-09T01:40:21;16.60;87.00
40085;DHT22;25786;51.504;7.344;2022-09-09T01:42:47;16.50;86.70
40085;DHT22;25786;51.504;7.344;2022-09-09T01:45:12;16.50;87.00
40085;DHT22;25786;51.504;7.344;2022-09-09T01:47:38;16.50;87.30
40085;DHT22;25786;51.504;7.344;2022-09-09T01:50:03;16.50;87.20
40085;DHT22;25786;51.504;7.344;2022-09-09T01:52:30;16.50;87.20
40085;DHT22;25786;51.504;7.344;2022-09-09T01:54:56;16.60;87.30
40085;DHT22;25786;51.504;7.344;2022-09-09T01:57:27;16.60;87.20
40085;DHT22;25786;51.504;7.344;2022-09-09T02:00:07;16.60;87.30
40085;DHT22;25786;51.504;7.344;2022-09-09T02:07:47;16.70;86.80
40085;DHT22;25786;51.504;7.344;2022-09-09T02:10:17;16.80;87.00
40085;DHT22;25786;51.504;7.344;2022-09-09T02:12:46;16.80;86.80
40085;DHT22;25786;51.504;7.344;2022-09-09T02:15:26;16.90;86.90
40085;DHT22;25786;51.504;7.344;2022-09-09T02:17:54;16.90;87.10
40085;DHT22;25786;51.504;7.344;2022-09-09T02:20:21;16.90;86.70
40085;DHT22;25786;51.504;7.344;2022-09-09T02:22:50;16.90;86.80
40085;DHT22;25786;51.504;7.344;2022-09-09T02:25:17;16.90;86.80
40085;DHT22;25786;51.504;7.344;2022-09-09T02:27:43;16.90;87.00
40085;DHT22;25786;51.504;7.344;2022-09-09T02:30:10;16.90;86.90
40085;DHT22;25786;51.504;7.344;2022-09-09T02:32:36;16.80;87.00
40085;DHT22;25786;51.504;7.344;2022-09-09T02:35:12;16.80;87.20
40085;DHT22;25786;51.504;7.344;2022-09-09T02:37:39;16.80;87.20
40085;DHT22;25786;51.504;7.344;2022-09-09T02:40:05;16.80;86.80
40085;DHT22;25786;51.504;7.344;2022-09-09T02:42:31;16.80;87.10
40085;DHT22;25786;51.504;7.344;2022-09-09T02:44:57;16.80;86.80
40085;DHT22;25786;51.504;7.344;2022-09-09T02:47:34;16.80;87.10
40085;DHT22;25786;51.504;7.344;2022-09-09T02:50:13;16.80;86.70
40085;DHT22;25786;51.504;7.344;2022-09-09T02:55:14;16.80;86.90
40085;DHT22;25786;51.504;7.344;2022-09-09T02:57:41;16.80;86.50
40085;DHT22;25786;51.504;7.344;2022-09-09T03:00:07;16.80;86.70
40085;DHT22;25786;51.504;7.344;2022-09-09T03:02:33;16.80;86.60
40085;DHT22;25786;51.504;7.344;2022-09-09T03:04:59;16.80;86.70
40085;DHT22;25786;51.504;7.344;2022-09-09T03:07:24;16.90;86.80
40085;DHT22;25786;51.504;7.344;2022-09-09T03:09:49;16.80;86.30
40085;DHT22;25786;51.504;7.344;2022-09-09T03:12:15;16.80;86.60
40085;DHT22;25786;51.504;7.344;2022-09-09T03:14:41;16.80;87.00
40085;DHT22;25786;51.504;7.344;2022-09-09T03:17:08;16.70;86.90
40085;DHT22;25786;51.504;7.344;2022-09-09T03:19:34;16.70;86.90
40085;DHT22;25786;51.504;7.344;2022-09-09T03:22:00;16.70;87.00
40085;DHT22;25786;51.504;7.344;2022-09-09T03:24:25;16.70;86.60
40085;DHT22;25786;51.504;7.344;2022-09-09T03:26:51;16.70;86.70
40085;DHT22;25786;51.504;7.344;2022-09-09T03:29:17;16.70;86.70
40085;DHT22;25786;51.504;7.344;2022-09-09T03:31:43;16.70;86.70
40085;DHT22;25786;51.504;7.344;2022-09-09T03:34:09;16.70;86.80
40085;DHT22;25786;51.504;7.344;2022-09-09T03:36:34;16.70;86.90
40085;DHT22;25786;51.504;7.344;2022-09-09T03:39:00;16.60;86.60
40085;DHT22;25786;51.504;7.344;2022-09-09T03:41:26;16.60;86.60
40085;DHT22;25786;51.504;7.344;2022-09-09T03:43:51;16.60;86.70
40085;DHT22;25786;51.504;7.344;2022-09-09T03:46:17;16.60;86.60
40085;DHT22;25786;51.504;7.344;2022-09-09T03:48:43;16.60;86.50
40085;DHT22;25786;51.504;7.344;2022-09-09T03:51:09;16.50;86.50
40085;DHT22;25786;51.504;7.344;2022-09-09T03:53:34;16.40;86.70
40085;DHT22;25786;51.504;7.344;2022-09-09T03:56:01;16.40;87.00
40085;DHT22;25786;51.504;7.344;2022-09-09T03:58:26;16.40;87.10
40085;DHT22;25786;51.504;7.344;2022-09-09T04:00:59;16.30;87.20
40085;DHT22;25786;51.504;7.344;2022-09-09T04:03:25;16.20;87.30
40085;DHT22;25786;51.504;7.344;2022-09-09T04:05:51;16.30;87.60
40085;DHT22;25786;51.504;7.344;2022-09-09T04:08:17;16.10;87.70
40085;DHT22;25786;51.504;7.344;2022-09-09T04:10:47;16.10;88.00
40085;DHT22;25786;51.504;7.344;2022-09-09T04:13:14;16.10;88.20
40085;DHT22;25786;51.504;7.344;2022-09-09T04:15:41;16.10;88.50
40085;DHT22;25786;51.504;7.344;2022-09-09T04:18:07;16.10;88.50
40085;DHT22;25786;51.504;7.344;2022-09-09T04:20:32;16.10;88.70
40085;DHT22;25786;51.504;7.344;2022-09-09T04:22:58;16.20;88.70
40085;DHT22;25786;51.504;7.344;2022-09-09T04:25:23;16.10;88.40
40085;DHT22;25786;51.504;7.344;2022-09-09T04:27:55;16.20;88.30
40085;DHT22;25786;51.504;7.344;2022-09-09T04:30:21;16.10;88.00
40085;DHT22;25786;51.504;7.344;2022-09-09T04:32:47;16.20;87.80
40085;DHT22;25786;51.504;7.344;2022-09-09T04:35:12;16.20;87.70
40085;DHT22;25786;51.504;7.344;2022-09-09T04:37:38;16.20;88.10
40085;DHT22;25786;51.504;7.344;2022-09-09T04:40:04;16.20;88.10
40085;DHT22;25786;51.504;7.344;2022-09-09T04:42:29;16.30;88.30
40085;DHT22;25786;51.504;7.344;2022-09-09T04:44:55;16.30;87.90
40085;DHT22;25786;51.504;7.344;2022-09-09T04:47:20;16.30;88.10
40085;DHT22;25786;51.504;7.344;2022-09-09T04:49:46;16.30;88.20
40085;DHT22;25786;51.504;7.344;2022-09-09T04:52:12;16.30;88.30
40085;DHT22;25786;51.504;7.344;2022-09-09T04:54:38;16.10;88.40
40085;DHT22;25786;51.504;7.344;2022-09-09T04:57:04;16.10;88.60
40085;DHT22;25786;51.504;7.344;2022-09-09T04:59:30;16.10;88.70
40085;DHT22;25786;51.504;7.344;2022-09-09T05:01:55;16.10;88.80
40085;DHT22;25786;51.504;7.344;2022-09-09T05:04:21;16.10;88.80
40085;DHT22;25786;51.504;7.344;2022-09-09T05:06:47;16.00;88.90
40085;DHT22;25786;51.504;7.344;2022-09-09T05:09:12;16.00;89.00
40085;DHT22;25786;51.504;7.344;2022-09-09T05:11:37;16.00;89.00
40085;DHT22;25786;51.504;7.344;2022-09-09T05:14:03;16.10;89.00
40085;DHT22;25786;51.504;7.344;2022-09-09T05:16:29;16.10;89.10
40085;DHT22;25786;51.504;7.344;2022-09-09T05:18:55;16.10;89.10
40085;DHT22;25786;51.504;7.344;2022-09-09T05:21:21;16.10;89.20
40085;DHT22;25786;51.504;7.344;2022-09-09T05:23:47;16.10;89.30
40085;DHT22;25786;51.504;7.344;2022-09-09T05:26:14;16.30;89.30
40085;DHT22;25786;51.504;7.344;2022-09-09T05:28:40;16.30;89.20
40085;DHT22;25786;51.504;7.344;2022-09-09T05:31:06;16.30;89.20
40085;DHT22;25786;51.504;7.344;2022-09-09T05:33:36;16.40;88.90
40085;DHT22;25786;51.504;7.344;2022-09-09T05:36:03;16.30;89.20
40085;DHT22;25786;51.504;7.344;2022-09-09T05:38:29;16.40;89.20
40085;DHT22;25786;51.504;7.344;2022-09-09T05:40:55;16.40;89.20
40085;DHT22;25786;51.504;7.344;2022-09-09T05:43:22;16.50;89.10
40085;DHT22;25786;51.504;7.344;2022-09-09T05:45:48;16.50;89.10
40085;DHT22;25786;51.504;7.344;2022-09-09T05:48:14;16.50;89.10
40085;DHT22;25786;51.504;7.344;2022-09-09T05:50:41;16.50;88.90
40085;DHT22;25786;51.504;7.344;2022-09-09T05:53:08;16.50;89.00
40085;DHT22;25786;51.504;7.344;2022-09-09T05:55:33;16.50;88.90
40085;DHT22;25786;51.504;7.344;2022-09-09T05:57:59;16.50;88.90
40085;DHT22;25786;51.504;7.344;2022-09-09T06:00:25;16.50;88.70
40085;DHT22;25786;51.504;7.344;2022-09-09T06:02:51;16.50;88.90
40085;DHT22;25786;51.504;7.344;2022-09-09T06:05:18;16.60;88.80
40085;DHT22;25786;51.504;7.344;2022-09-09T06:07:43;16.60;88.90
40085;DHT22;25786;51.504;7.344;2022-09-09T06:10:10;16.60;88.80
40085;DHT22;25786;51.504;7.344;2022-09-09T06:12:35;16.60;88.80
40085;DHT22;25786;51.504;7.344;2022-09-09T06:15:01;16.70;88.60
40085;DHT22;25786;51.504;7.344;2022-09-09T06:17:27;16.80;88.10
40085;DHT22;25786;51.504;7.344;2022-09-09T06:19:52;16.80;88.20
40085;DHT22;25786;51.504;7.344;2022-09-09T06:22:18;16.80;88.10
40085;DHT22;25786;51.504;7.344;2022-09-09T06:24:43;16.80;87.20
40085;DHT22;25786;51.504;7.344;2022-09-09T06:27:10;16.80;87.60
40085;DHT22;25786;51.504;7.344;2022-09-09T06:29:36;16.90;88.00
40085;DHT22;25786;51.504;7.344;2022-09-09T06:32:02;16.90;87.60
40085;DHT22;25786;51.504;7.344;2022-09-09T06:34:28;17.00;87.20
40085;DHT22;25786;51.504;7.344;2022-09-09T06:36:53;17.00;87.60
40085;DHT22;25786;51.504;7.344;2022-09-09T06:39:19;17.00;87.30
40085;DHT22;25786;51.504;7.344;2022-09-09T06:41:44;17.00;87.20
40085;DHT22;25786;51.504;7.344;2022-09-09T06:44:10;17.10;87.10
40085;DHT22;25786;51.504;7.344;2022-09-09T06:46:37;17.10;87.40
40085;DHT22;25786;51.504;7.344;2022-09-09T06:49:03;17.10;87.60
40085;DHT22;25786;51.504;7.344;2022-09-09T06:51:29;17.10;87.50
40085;DHT22;25786;51.504;7.344;2022-09-09T06:53:56;17.20;86.90
40085;DHT22;25786;51.504;7.344;2022-09-09T06:56:29;17.20;87.10
40085;DHT22;25786;51.504;7.344;2022-09-09T06:58:55;17.10;87.30
40085;DHT22;25786;51.504;7.344;2022-09-09T07:01:22;17.20;87.50
40085;DHT22;25786;51.504;7.344;2022-09-09T07:03:52;17.20;86.50
40085;DHT22;25786;51.504;7.344;2022-09-09T07:06:22;17.20;87.00
40085;DHT22;25786;51.504;7.344;2022-09-09T07:08:49;17.20;86.70
40085;DHT22;25786;51.504;7.344;2022-09-09T07:11:15;17.30;87.00
40085;DHT22;25786;51.504;7.344;2022-09-09T07:13:41;17.30;86.70
40085;DHT22;25786;51.504;7.344;2022-09-09T07:16:08;17.50;86.00
40085;DHT22;25786;51.504;7.344;2022-09-09T07:18:34;17.50;86.10
40085;DHT22;25786;51.504;7.344;2022-09-09T07:21:00;17.60;84.90
40085;DHT22;25786;51.504;7.344;2022-09-09T07:23:27;17.80;84.50
40085;DHT22;25786;51.504;7.344;2022-09-09T07:25:53;17.90;84.90
40085;DHT22;25786;51.504;7.344;2022-09-09T07:28:21;18.10;84.70
40085;DHT22;25786;51.504;7.344;2022-09-09T07:30:53;18.10;83.40
40085;DHT22;25786;51.504;7.344;2022-09-09T07:33:19;18.10;83.10
40085;DHT22;25786;51.504;7.344;2022-09-09T07:35:45;18.10;82.60
40085;DHT22;25786;51.504;7.344;2022-09-09T07:38:11;18.00;82.80
40085;DHT22;25786;51.504;7.344;2022-09-09T07:40:36;18.10;82.20
40085;DHT22;25786;51.504;7.344;2022-09-09T07:43:02;18.10;82.00
40085;DHT22;25786;51.504;7.344;2022-09-09T07:45:27;18.00;81.40
40085;DHT22;25786;51.504;7.344;2022-09-09T07:47:53;18.10;81.90
40085;DHT22;25786;51.504;7.344;2022-09-09T07:50:20;18.10;80.50
40085;DHT22;25786;51.504;7.344;2022-09-09T07:52:46;18.00;82.10
40085;DHT22;25786;51.504;7.344;2022-09-09T07:55:11;18.00;81.70
40085;DHT22;25786;51.504;7.344;2022-09-09T07:57:37;17.90;81.70
40085;DHT22;25786;51.504;7.344;2022-09-09T08:00:03;17.90;81.60
40085;DHT22;25786;51.504;7.344;2022-09-09T08:02:29;17.80;82.30
40085;DHT22;25786;51.504;7.344;2022-09-09T08:04:54;18.00;81.10
40085;DHT22;25786;51.504;7.344;2022-09-09T08:07:20;18.00;80.50
40085;DHT22;25786;51.504;7.344;2022-09-09T08:09:46;18.00;79.30
40085;DHT22;25786;51.504;7.344;2022-09-09T08:12:12;18.10;80.50
40085;DHT22;25786;51.504;7.344;2022-09-09T08:14:38;18.30;80.70
40085;DHT22;25786;51.504;7.344;2022-09-09T08:17:04;18.10;80.50
40085;DHT22;25786;51.504;7.344;2022-09-09T08:19:30;18.40;79.90
40085;DHT22;25786;51.504;7.344;2022-09-09T08:21:58;18.30;79.50
40085;DHT22;25786;51.504;7.344;2022-09-09T08:24:23;18.30;78.60
40085;DHT22;25786;51.504;7.344;2022-09-09T08:26:49;18.30;78.70
40085;DHT22;25786;51.504;7.344;2022-09-09T08:29:15;18.60;78.50
40085;DHT22;25786;51.504;7.344;2022-09-09T08:31:45;18.80;77.80
40085;DHT22;25786;51.504;7.344;2022-09-09T08:34:11;18.60;76.40
40085;DHT22;25786;51.504;7.344;2022-09-09T08:36:38;18.50;77.10
40085;DHT22;25786;51.504;7.344;2022-09-09T08:39:04;18.50;75.50
40085;DHT22;25786;51.504;7.344;2022-09-09T08:41:41;18.50;76.50
40085;DHT22;25786;51.504;7.344;2022-09-09T08:52:13;19.10;72.50
40085;DHT22;25786;51.504;7.344;2022-09-09T08:54:41;19.00;72.40
40085;DHT22;25786;51.504;7.344;2022-09-09T08:57:07;18.90;74.00
40085;DHT22;25786;51.504;7.344;2022-09-09T08:59:35;18.80;73.40
40085;DHT22;25786;51.504;7.344;2022-09-09T09:04:55;18.70;75.90
40085;DHT22;25786;51.504;7.344;2022-09-09T09:07:25;18.80;73.00
40085;DHT22;25786;51.504;7.344;2022-09-09T09:12:30;19.10;71.10
40085;DHT22;25786;51.504;7.344;2022-09-09T09:15:00;19.10;71.90
40085;DHT22;25786;51.504;7.344;2022-09-09T09:17:27;19.60;70.40
40085;DHT22;25786;51.504;7.344;2022-09-09T09:19:53;19.80;71.10
40085;DHT22;25786;51.504;7.344;2022-09-09T09:22:19;20.00;67.70
40085;DHT22;25786;51.504;7.344;2022-09-09T09:24:56;20.00;68.60
40085;DHT22;25786;51.504;7.344;2022-09-09T09:29:47;19.80;67.90
40085;DHT22;25786;51.504;7.344;2022-09-09T09:32:16;19.80;67.70
40085;DHT22;25786;51.504;7.344;2022-09-09T09:34:48;20.00;68.10
40085;DHT22;25786;51.504;7.344;2022-09-09T09:37:17;20.00;67.60
40085;DHT22;25786;51.504;7.344;2022-09-09T09:39:45;20.10;66.20
40085;DHT22;25786;51.504;7.344;2022-09-09T09:42:15;20.10;66.60
40085;DHT22;25786;51.504;7.344;2022-09-09T09:44:42;20.00;66.40
40085;DHT22;25786;51.504;7.344;2022-09-09T09:47:12;19.90;66.80
40085;DHT22;25786;51.504;7.344;2022-09-09T09:49:38;20.00;66.70
40085;DHT22;25786;51.504;7.344;2022-09-09T09:52:05;20.00;67.00
40085;DHT22;25786;51.504;7.344;2022-09-09T09:54:32;20.10;67.30
40085;DHT22;25786;51.504;7.344;2022-09-09T09:57:11;20.10;66.20
40085;DHT22;25786;51.504;7.344;2022-09-09T09:59:37;20.00;65.40
40085;DHT22;25786;51.504;7.344;2022-09-09T10:02:11;20.00;67.00
40085;DHT22;25786;51.504;7.344;2022-09-09T10:04:38;20.00;65.20
40085;DHT22;25786;51.504;7.344;2022-09-09T10:07:11;20.10;65.40
40085;DHT22;25786;51.504;7.344;2022-09-09T10:09:37;20.10;65.50
40085;DHT22;25786;51.504;7.344;2022-09-09T10:17:23;20.10;65.80
40085;DHT22;25786;51.504;7.344;2022-09-09T10:19:59;20.20;64.40
40085;DHT22;25786;51.504;7.344;2022-09-09T10:22:33;20.30;64.70
40085;DHT22;25786;51.504;7.344;2022-09-09T10:27:31;20.90;63.50
40085;DHT22;25786;51.504;7.344;2022-09-09T10:30:07;20.80;61.90
40085;DHT22;25786;51.504;7.344;2022-09-09T10:37:54;20.80;62.00
40085;DHT22;25786;51.504;7.344;2022-09-09T10:40:36;21.00;62.00
40085;DHT22;25786;51.504;7.344;2022-09-09T10:51:21;20.80;63.10
40085;DHT22;25786;51.504;7.344;2022-09-09T10:56:17;21.00;61.00
40085;DHT22;25786;51.504;7.344;2022-09-09T10:58:46;21.10;58.20
40085;DHT22;25786;51.504;7.344;2022-09-09T11:01:15;21.10;59.50
40085;DHT22;25786;51.504;7.344;2022-09-09T11:03:41;21.30;59.80
40085;DHT22;25786;51.504;7.344;2022-09-09T11:06:20;21.50;57.20
40085;DHT22;25786;51.504;7.344;2022-09-09T11:08:47;21.60;57.50
40085;DHT22;25786;51.504;7.344;2022-09-09T11:11:49;21.80;57.50
40085;DHT22;25786;51.504;7.344;2022-09-09T11:14:21;21.60;55.70
40085;DHT22;25786;51.504;7.344;2022-09-09T11:19:29;21.60;57.00
40085;DHT22;25786;51.504;7.344;2022-09-09T11:21:55;21.60;57.20
40085;DHT22;25786;51.504;7.344;2022-09-09T11:24:58;21.60;56.80
40085;DHT22;25786;51.504;7.344;2022-09-09T11:27:18;21.60;57.30
40085;DHT22;25786;51.504;7.344;2022-09-09T11:42:44;21.80;56.40
40085;DHT22;25786;51.504;7.344;2022-09-09T11:47:36;21.90;55.70
40085;DHT22;25786;51.504;7.344;2022-09-09T11:50:08;21.80;56.80
40085;DHT22;25786;51.504;7.344;2022-09-09T11:55:24;21.50;56.60
40085;DHT22;25786;51.504;7.344;2022-09-09T11:58:01;21.40;56.70
40085;DHT22;25786;51.504;7.344;2022-09-09T12:00:37;21.50;59.20
40085;DHT22;25786;51.504;7.344;2022-09-09T12:03:04;21.50;57.50
40085;DHT22;25786;51.504;7.344;2022-09-09T12:05:40;21.60;56.90
40085;DHT22;25786;51.504;7.344;2022-09-09T12:08:06;21.60;56.80
40085;DHT22;25786;51.504;7.344;2022-09-09T12:10:40;21.60;56.90
40085;DHT22;25786;51.504;7.344;2022-09-09T12:13:20;21.50;57.40
40085;DHT22;25786;51.504;7.344;2022-09-09T12:15:49;21.20;57.40
40085;DHT22;25786;51.504;7.344;2022-09-09T12:18:25;21.00;58.50
40085;DHT22;25786;51.504;7.344;2022-09-09T12:20:52;21.00;58.50
40085;DHT22;25786;51.504;7.344;2022-09-09T12:23:22;20.90;62.10
40085;DHT22;25786;51.504;7.344;2022-09-09T12:25:54;20.70;65.50
40085;DHT22;25786;51.504;7.344;2022-09-09T12:28:44;20.40;65.00
40085;DHT22;25786;51.504;7.344;2022-09-09T12:31:12;20.20;68.10
40085;DHT22;25786;51.504;7.344;2022-09-09T12:33:43;20.20;67.20
40085;DHT22;25786;51.504;7.344;2022-09-09T12:36:18;20.40;66.60
40085;DHT22;25786;51.504;7.344;2022-09-09T12:38:44;20.50;65.80
40085;DHT22;25786;51.504;7.344;2022-09-09T12:41:23;20.10;72.10
40085;DHT22;25786;51.504;7.344;2022-09-09T12:43:49;19.90;75.80
40085;DHT22;25786;51.504;7.344;2022-09-09T12:46:21;19.80;75.50
40085;DHT22;25786;51.504;7.344;2022-09-09T12:48:48;19.70;75.50
40085;DHT22;25786;51.504;7.344;2022-09-09T12:51:30;19.80;76.60
40085;DHT22;25786;51.504;7.344;2022-09-09T12:53:55;19.70;77.30
40085;DHT22;25786;51.504;7.344;2022-09-09T12:56:26;19.80;74.20
40085;DHT22;25786;51.504;7.344;2022-09-09T12:58:52;19.90;74.20
40085;DHT22;25786;51.504;7.344;2022-09-09T13:01:26;20.00;73.30
40085;DHT22;25786;51.504;7.344;2022-09-09T13:03:51;20.00;72.80
40085;DHT22;25786;51.504;7.344;2022-09-09T13:06:30;19.90;72.00
40085;DHT22;25786;51.504;7.344;2022-09-09T13:08:57;20.00;73.80
40085;DHT22;25786;51.504;7.344;2022-09-09T13:11:25;19.90;75.40
40085;DHT22;25786;51.504;7.344;2022-09-09T13:13:55;19.90;75.10
40085;DHT22;25786;51.504;7.344;2022-09-09T13:16:31;19.80;75.70
40085;DHT22;25786;51.504;7.344;2022-09-09T13:18:58;19.80;76.10
40085;DHT22;25786;51.504;7.344;2022-09-09T13:21:37;20.00;76.20
40085;DHT22;25786;51.504;7.344;2022-09-09T13:24:04;19.80;77.30
40085;DHT22;25786;51.504;7.344;2022-09-09T13:26:29;19.90;77.40
40085;DHT22;25786;51.504;7.344;2022-09-09T13:28:55;19.80;76.00
40085;DHT22;25786;51.504;7.344;2022-09-09T13:31:33;19.90;75.30
40085;DHT22;25786;51.504;7.344;2022-09-09T13:33:59;19.70;74.30
40085;DHT22;25786;51.504;7.344;2022-09-09T13:36:32;19.70;75.40
40085;DHT22;25786;51.504;7.344;2022-09-09T13:39:00;19.70;75.00
40085;DHT22;25786;51.504;7.344;2022-09-09T13:41:30;19.90;74.30
40085;DHT22;25786;51.504;7.344;2022-09-09T13:43:57;20.30;73.80
40085;DHT22;25786;51.504;7.344;2022-09-09T13:46:33;20.50;71.90
40085;DHT22;25786;51.504;7.344;2022-09-09T13:51:41;20.60;70.00
40085;DHT22;25786;51.504;7.344;2022-09-09T13:54:11;20.50;69.10
40085;DHT22;25786;51.504;7.344;2022-09-09T13:56:37;20.40;69.70
40085;DHT22;25786;51.504;7.344;2022-09-09T13:59:04;20.30;70.40
40085;DHT22;25786;51.504;7.344;2022-09-09T14:01:30;20.20;70.80
40085;DHT22;25786;51.504;7.344;2022-09-09T14:03:56;20.00;71.30
40085;DHT22;25786;51.504;7.344;2022-09-09T14:06:22;19.80;72.70
40085;DHT22;25786;51.504;7.344;2022-09-09T14:08:51;19.50;73.50
40085;DHT22;25786;51.504;7.344;2022-09-09T14:11:16;19.30;74.20
40085;DHT22;25786;51.504;7.344;2022-09-09T14:13:42;19.20;76.20
40085;DHT22;25786;51.504;7.344;2022-09-09T14:16:07;19.20;77.30
40085;DHT22;25786;51.504;7.344;2022-09-09T14:18:33;19.30;77.90
40085;DHT22;25786;51.504;7.344;2022-09-09T14:20:59;19.50;76.40
40085;DHT22;25786;51.504;7.344;2022-09-09T14:23:25;19.80;76.50
40085;DHT22;25786;51.504;7.344;2022-09-09T14:25:50;20.10;76.60
40085;DHT22;25786;51.504;7.344;2022-09-09T14:28:16;20.30;74.50
40085;DHT22;25786;51.504;7.344;2022-09-09T14:30:42;20.50;74.20
40085;DHT22;25786;51.504;7.344;2022-09-09T14:33:13;20.90;72.70
40085;DHT22;25786;51.504;7.344;2022-09-09T14:35:39;20.90;73.40
40085;DHT22;25786;51.504;7.344;2022-09-09T14:38:05;20.80;70.90
40085;DHT22;25786;51.504;7.344;2022-09-09T14:40:31;20.70;71.20
40085;DHT22;25786;51.504;7.344;2022-09-09T14:42:56;20.50;70.40
40085;DHT22;25786;51.504;7.344;2022-09-09T14:45:22;20.50;69.40
40085;DHT22;25786;51.504;7.344;2022-09-09T14:47:49;20.30;71.30
40085;DHT22;25786;51.504;7.344;2022-09-09T14:50:14;20.30;71.20
40085;DHT22;25786;51.504;7.344;2022-09-09T14:52:40;20.20;72.50
40085;DHT22;25786;51.504;7.344;2022-09-09T14:55:05;20.20;72.10
40085;DHT22;25786;51.504;7.344;2022-09-09T14:57:31;20.20;72.90
40085;DHT22;25786;51.504;7.344;2022-09-09T14:59:57;20.30;73.00
40085;DHT22;25786;51.504;7.344;2022-09-09T15:02:22;20.30;73.50
40085;DHT22;25786;51.504;7.344;2022-09-09T15:04:47;20.50;73.50
40085;DHT22;25786;51.504;7.344;2022-09-09T15:07:15;20.30;76.60
40085;DHT22;25786;51.504;7.344;2022-09-09T15:09:41;20.30;77.50
40085;DHT22;25786;51.504;7.344;2022-09-09T15:12:07;20.40;75.70
40085;DHT22;25786;51.504;7.344;2022-09-09T15:14:32;20.40;76.80
40085;DHT22;25786;51.504;7.344;2022-09-09T15:16:58;20.40;75.60
40085;DHT22;25786;51.504;7.344;2022-09-09T15:19:23;20.40;76.40
40085;DHT22;25786;51.504;7.344;2022-09-09T15:21:49;20.30;76.60
40085;DHT22;25786;51.504;7.344;2022-09-09T15:24:14;20.20;76.70
40085;DHT22;25786;51.504;7.344;2022-09-09T15:26:41;20.10;76.40
40085;DHT22;25786;51.504;7.344;2022-09-09T15:29:06;20.10;76.50
40085;DHT22;25786;51.504;7.344;2022-09-09T15:31:33;20.00;76.10
40085;DHT22;25786;51.504;7.344;2022-09-09T15:34:00;19.90;76.50
40085;DHT22;25786;51.504;7.344;2022-09-09T15:36:27;19.80;77.00
40085;DHT22;25786;51.504;7.344;2022-09-09T15:38:53;19.60;77.50
40085;DHT22;25786;51.504;7.344;2022-09-09T15:41:20;19.10;77.60
40085;DHT22;25786;51.504;7.344;2022-09-09T15:43:46;18.80;77.90
40085;DHT22;25786;51.504;7.344;2022-09-09T15:46:26;18.70;77.50
40085;DHT22;25786;51.504;7.344;2022-09-09T15:48:56;18.50;77.50
40085;DHT22;25786;51.504;7.344;2022-09-09T15:51:23;18.30;78.40
40085;DHT22;25786;51.504;7.344;2022-09-09T15:53:48;18.20;77.60
40085;DHT22;25786;51.504;7.344;2022-09-09T15:56:14;18.00;78.00
40085;DHT22;25786;51.504;7.344;2022-09-09T15:58:39;17.70;78.80
40085;DHT22;25786;51.504;7.344;2022-09-09T16:01:06;17.60;80.80
40085;DHT22;25786;51.504;7.344;2022-09-09T16:03:38;17.50;82.30
40085;DHT22;25786;51.504;7.344;2022-09-09T16:06:05;17.60;83.40
40085;DHT22;25786;51.504;7.344;2022-09-09T16:08:31;17.50;83.80
40085;DHT22;25786;51.504;7.344;2022-09-09T16:11:03;17.50;84.20
40085;DHT22;25786;51.504;7.344;2022-09-09T16:13:29;17.40;84.80
40085;DHT22;25786;51.504;7.344;2022-09-09T16:15:57;17.40;84.80
40085;DHT22;25786;51.504;7.344;2022-09-09T16:18:23;17.30;85.20
40085;DHT22;25786;51.504;7.344;2022-09-09T16:20:54;17.30;84.70
40085;DHT22;25786;51.504;7.344;2022-09-09T16:23:20;17.30;84.80
40085;DHT22;25786;51.504;7.344;2022-09-09T16:25:54;17.40;84.60
40085;DHT22;25786;51.504;7.344;2022-09-09T16:28:20;17.50;84.80
40085;DHT22;25786;51.504;7.344;2022-09-09T16:30:46;17.50;84.50
40085;DHT22;25786;51.504;7.344;2022-09-09T16:33:11;17.50;84.40
40085;DHT22;25786;51.504;7.344;2022-09-09T16:35:40;17.60;84.60
40085;DHT22;25786;51.504;7.344;2022-09-09T16:38:05;17.80;84.60
40085;DHT22;25786;51.504;7.344;2022-09-09T16:40:35;17.80;84.00
40085;DHT22;25786;51.504;7.344;2022-09-09T16:43:02;17.90;84.20
40085;DHT22;25786;51.504;7.344;2022-09-09T16:45:27;18.00;84.50
40085;DHT22;25786;51.504;7.344;2022-09-09T16:47:53;18.00;83.70
40085;DHT22;25786;51.504;7.344;2022-09-09T16:50:18;18.00;83.00
40085;DHT22;25786;51.504;7.344;2022-09-09T16:52:44;18.00;84.00
40085;DHT22;25786;51.504;7.344;2022-09-09T16:55:09;17.90;84.30
40085;DHT22;25786;51.504;7.344;2022-09-09T16:57:35;17.90;84.40
40085;DHT22;25786;51.504;7.344;2022-09-09T17:00:00;18.00;83.40
40085;DHT22;25786;51.504;7.344;2022-09-09T17:02:29;17.90;82.60
40085;DHT22;25786;51.504;7.344;2022-09-09T17:04:55;17.80;82.80
40085;DHT22;25786;51.504;7.344;2022-09-09T17:07:20;17.80;83.70
40085;DHT22;25786;51.504;7.344;2022-09-09T17:09:46;17.80;83.70
40085;DHT22;25786;51.504;7.344;2022-09-09T17:12:11;17.90;83.90
40085;DHT22;25786;51.504;7.344;2022-09-09T17:14:37;17.80;84.30
40085;DHT22;25786;51.504;7.344;2022-09-09T17:17:03;17.80;83.90
40085;DHT22;25786;51.504;7.344;2022-09-09T17:19:30;17.70;83.90